CWSA

Sable Island Airport

Nova Scotia, Canada
METAR CWSA 172329Z AUTO 12024G32KT 7SM BKN009 BKN110 02/00 A3019 RMK TS/LTNG TEMPO UNAVBL SLP223
Observed Flight Rules
Jan-17 @ 23:29 UTC (33 minutes ago) Instrument Flight Rules
Wind Visibility Clouds
120° at 24 knots
 Gusting to 32 knots
7 miles
  • Broken at 900' AGL
  • Broken at 11,000' AGL
Temperatures Readings
Current 2°C / 36°F
Dewpoint 0°C / 32°F
Humidity 87%
Altimeter 30.19" Hg
Pressure 1022.3 hPa
Elevation 4
METAR CWSA 172329Z AUTO 12024G32KT 7SM BKN009 BKN110 02/00 A3019 RMK TS/LTNG TEMPO UNAVBL SLP223
Observed Flight Rules
Jan-17 @ 23:29 UTC
(33 minutes ago)
IFR
Wind Visibility
120° at 24 knots
 Gusting to 32 knots
7 miles
Clouds
  • Broken at 900' AGL
  • Broken at 11,000' AGL
Temperature Dewpoint
2°C / 36°F 0°C / 32°F
Humidity Altimeter Pressure
87% 30.19" Hg 1022.3 hPa